createdAt,value
2017-03-04T00:00:49.986Z,9.97
2017-03-04T00:02:01.031Z,9.97
2017-03-04T00:03:15.938Z,9.99
2017-03-04T00:04:30.256Z,9.93
2017-03-04T00:05:45.488Z,9.89
2017-03-04T00:07:01.350Z,9.89
2017-03-04T00:08:15.433Z,9.94
2017-03-04T00:09:32.056Z,9.97
2017-03-04T00:10:46.758Z,9.89
2017-03-04T00:12:01.268Z,9.94
2017-03-04T00:13:14.133Z,9.9
2017-03-04T00:14:27.504Z,9.97
2017-03-04T00:15:37.856Z,9.99
2017-03-04T00:16:50.772Z,9.99
2017-03-04T00:18:05.135Z,9.96
2017-03-04T00:19:20.650Z,9.99
2017-03-04T00:20:34.766Z,9.94
2017-03-04T00:21:48.999Z,9.89
2017-03-04T00:23:03.459Z,9.93
2017-03-04T00:24:18.605Z,9.87
2017-03-04T00:25:31.363Z,9.86
2017-03-04T00:26:42.381Z,9.89
2017-03-04T00:27:52.058Z,9.89
2017-03-04T00:29:04.588Z,9.86
2017-03-04T00:30:17.458Z,9.83
2017-03-04T00:31:26.458Z,9.84
2017-03-04T00:32:39.655Z,9.87
2017-03-04T00:33:52.836Z,9.9
2017-03-04T00:35:04.296Z,9.9
2017-03-04T00:36:13.605Z,9.9
2017-03-04T00:37:22.600Z,9.89
2017-03-04T00:38:32.073Z,9.89
2017-03-04T00:39:41.071Z,9.86
2017-03-04T00:40:50.054Z,9.86
2017-03-04T00:41:59.351Z,9.89
2017-03-04T00:43:08.346Z,9.91
2017-03-04T00:44:17.739Z,9.83
2017-03-04T00:45:26.742Z,9.78
2017-03-04T00:46:35.731Z,9.78
2017-03-04T00:47:44.977Z,9.84
2017-03-04T00:48:54.805Z,9.93
2017-03-04T00:50:03.805Z,9.78
2017-03-04T00:51:12.805Z,9.96
2017-03-04T00:52:21.781Z,9.91
2017-03-04T00:53:31.007Z,9.76
2017-03-04T00:54:39.996Z,9.81
2017-03-04T00:55:48.973Z,9.76
2017-03-04T00:56:57.959Z,9.79
2017-03-04T00:58:06.962Z,9.78
2017-03-04T00:59:16.440Z,9.78
2017-03-04T01:00:25.440Z,9.93
2017-03-04T01:01:34.451Z,9.87
2017-03-04T01:02:43.863Z,9.86
2017-03-04T01:03:52.849Z,9.93
2017-03-04T01:05:02.142Z,9.89
2017-03-04T01:06:11.523Z,9.86
2017-03-04T01:07:20.561Z,9.87
2017-03-04T01:08:29.834Z,9.87
2017-03-04T01:09:38.822Z,9.87
2017-03-04T01:10:48.098Z,9.89
2017-03-04T01:11:57.081Z,9.87
2017-03-04T01:13:06.098Z,9.89
2017-03-04T01:14:15.083Z,9.76
2017-03-04T01:15:24.325Z,9.84
2017-03-04T01:16:33.631Z,9.75
2017-03-04T01:17:42.611Z,9.72
2017-03-04T01:18:51.603Z,9.76
2017-03-04T01:20:00.594Z,9.78
2017-03-04T01:21:09.573Z,9.76
2017-03-04T01:22:18.798Z,9.78
2017-03-04T01:23:27.775Z,9.75
2017-03-04T01:24:36.772Z,9.79
2017-03-04T01:25:45.845Z,9.78
2017-03-04T01:26:54.841Z,9.81
2017-03-04T01:28:04.152Z,9.79
2017-03-04T01:29:13.160Z,9.76
2017-03-04T01:30:22.157Z,9.69
2017-03-04T01:31:31.217Z,9.61
2017-03-04T01:32:40.211Z,9.69
2017-03-04T01:33:49.530Z,9.65
2017-03-04T01:34:58.914Z,9.65
2017-03-04T01:36:07.911Z,9.79
2017-03-04T01:37:16.938Z,9.74
2017-03-04T01:38:25.926Z,9.66
2017-03-04T01:39:35.208Z,9.66
2017-03-04T01:40:44.281Z,9.6
2017-03-04T01:41:53.259Z,9.5
2017-03-04T01:43:02.239Z,9.48
2017-03-04T01:44:11.628Z,9.53
2017-03-04T01:45:20.925Z,9.5
2017-03-04T01:46:29.920Z,9.53
2017-03-04T01:47:38.920Z,9.54
2017-03-04T01:48:47.998Z,9.51
2017-03-04T01:49:57.403Z,9.56
2017-03-04T01:51:06.643Z,9.54
2017-03-04T01:52:15.625Z,9.48
2017-03-04T01:53:24.609Z,9.48
2017-03-04T01:54:33.590Z,9.51
2017-03-04T01:55:42.669Z,9.48
2017-03-04T01:56:52.008Z,9.42
2017-03-04T01:58:01.023Z,9.5
2017-03-04T01:59:10.010Z,9.53
2017-03-04T02:00:19.002Z,9.46
2017-03-04T02:01:28.466Z,9.43
2017-03-04T02:02:37.774Z,9.42
2017-03-04T02:03:47.280Z,9.47
2017-03-04T02:04:56.279Z,9.4
2017-03-04T02:06:05.269Z,9.39
2017-03-04T02:07:14.260Z,9.43
2017-03-04T02:08:23.501Z,9.43
2017-03-04T02:09:32.476Z,9.47
2017-03-04T02:10:41.556Z,9.38
2017-03-04T02:11:50.551Z,9.43
2017-03-04T02:12:59.544Z,9.53
2017-03-04T02:14:08.833Z,9.5
2017-03-04T02:15:17.814Z,9.46
2017-03-04T02:16:26.786Z,9.43
2017-03-04T02:17:35.884Z,9.4
2017-03-04T02:18:44.864Z,9.33
2017-03-04T02:19:54.136Z,9.35
2017-03-04T02:21:03.239Z,9.35
2017-03-04T02:22:12.227Z,9.31
2017-03-04T02:23:21.217Z,9.4
2017-03-04T02:24:30.219Z,9.43
2017-03-04T02:25:39.491Z,9.4
2017-03-04T02:26:48.472Z,9.39
2017-03-04T02:27:57.448Z,9.43
2017-03-04T02:29:06.433Z,9.43
2017-03-04T02:30:15.430Z,9.46
2017-03-04T02:31:25.074Z,9.48
2017-03-04T02:32:34.100Z,9.54
2017-03-04T02:33:43.511Z,9.47
2017-03-04T02:34:52.511Z,9.48
2017-03-04T02:36:01.943Z,9.39
2017-03-04T02:37:11.234Z,9.47
2017-03-04T02:38:20.213Z,9.4
2017-03-04T02:39:29.202Z,9.5
2017-03-04T02:40:38.194Z,9.48
2017-03-04T02:41:47.177Z,9.4
2017-03-04T02:42:56.472Z,9.38
2017-03-04T02:44:05.568Z,9.39
2017-03-04T02:45:14.560Z,9.42
2017-03-04T02:46:23.569Z,9.33
2017-03-04T02:47:32.571Z,9.31
2017-03-04T02:48:41.934Z,9.23
2017-03-04T02:49:50.933Z,9.18
2017-03-04T02:50:59.998Z,9.21
2017-03-04T02:52:08.974Z,9.26
2017-03-04T02:53:17.970Z,9.18
2017-03-04T02:54:27.241Z,9.28
2017-03-04T02:55:36.318Z,9.29
2017-03-04T02:56:45.327Z,9.32
2017-03-04T02:57:54.324Z,9.32
2017-03-04T02:59:03.314Z,9.32
2017-03-04T03:00:12.604Z,9.28
2017-03-04T03:01:21.593Z,9.31
2017-03-04T03:02:30.581Z,9.33
2017-03-04T03:03:39.559Z,9.21
2017-03-04T03:04:48.542Z,9.23
2017-03-04T03:05:57.843Z,9.17
2017-03-04T03:07:06.851Z,9.23
2017-03-04T03:08:15.848Z,9.15
2017-03-04T03:09:24.846Z,9.21
2017-03-04T03:10:34.273Z,9.23
2017-03-04T03:11:43.506Z,9.15
2017-03-04T03:12:52.582Z,9.17
2017-03-04T03:14:01.570Z,9.08
2017-03-04T03:15:10.546Z,9.14
2017-03-04T03:16:19.612Z,9.13
2017-03-04T03:17:28.927Z,9.05
2017-03-04T03:18:37.929Z,9.02
2017-03-04T03:19:46.914Z,9.04
2017-03-04T03:20:55.889Z,9.04
2017-03-04T03:22:04.877Z,9.1
2017-03-04T03:23:14.152Z,9.02
2017-03-04T03:24:23.215Z,8.98
2017-03-04T03:25:32.193Z,8.98
2017-03-04T03:26:41.187Z,8.99
2017-03-04T03:27:50.183Z,8.99
2017-03-04T03:28:59.495Z,8.89
2017-03-04T03:30:08.881Z,8.87
2017-03-04T03:31:17.873Z,8.92
2017-03-04T03:32:26.871Z,8.92
2017-03-04T03:33:35.859Z,8.99
2017-03-04T03:34:45.146Z,8.92
2017-03-04T03:35:54.535Z,9.01
2017-03-04T03:37:03.615Z,8.89
2017-03-04T03:38:12.600Z,9.01
2017-03-04T03:39:21.573Z,8.99
2017-03-04T03:40:31.280Z,8.95
2017-03-04T03:41:40.287Z,8.87
2017-03-04T03:42:49.269Z,8.91
2017-03-04T03:43:58.343Z,8.91
2017-03-04T03:45:07.334Z,8.91
2017-03-04T03:46:16.645Z,8.87
2017-03-04T03:47:25.638Z,8.91
2017-03-04T03:48:34.621Z,8.89
2017-03-04T03:49:43.707Z,8.92
2017-03-04T03:50:52.777Z,8.92
2017-03-04T03:52:02.077Z,8.91
2017-03-04T03:53:11.077Z,8.84
2017-03-04T03:54:20.155Z,8.92
2017-03-04T03:55:29.138Z,8.92
2017-03-04T03:56:38.114Z,8.91
2017-03-04T03:57:47.357Z,8.83
2017-03-04T03:58:56.352Z,8.86
2017-03-04T04:00:05.332Z,8.81
2017-03-04T04:01:14.335Z,8.84
2017-03-04T04:02:23.825Z,8.83
2017-03-04T04:03:33.117Z,8.73
2017-03-04T04:04:42.097Z,8.84
2017-03-04T04:05:51.084Z,8.8
2017-03-04T04:07:00.110Z,8.77
2017-03-04T04:08:09.087Z,8.76
2017-03-04T04:09:18.383Z,8.73
2017-03-04T04:10:27.563Z,8.77
2017-03-04T04:11:36.560Z,8.76
2017-03-04T04:12:45.559Z,8.79
2017-03-04T04:13:54.549Z,8.71
2017-03-04T04:15:03.872Z,8.76
2017-03-04T04:16:13.271Z,8.76
2017-03-04T04:17:22.341Z,8.68
2017-03-04T04:18:31.314Z,8.7
2017-03-04T04:19:40.390Z,8.66
2017-03-04T04:20:49.671Z,8.65
2017-03-04T04:21:58.760Z,8.68
2017-03-04T04:23:07.843Z,8.65
2017-03-04T04:24:16.846Z,8.66
2017-03-04T04:25:26.256Z,8.74
2017-03-04T04:26:35.944Z,8.66
2017-03-04T04:27:44.925Z,8.7
2017-03-04T04:28:53.911Z,8.66
2017-03-04T04:30:02.914Z,8.68
2017-03-04T04:31:12.075Z,8.65
2017-03-04T04:32:21.443Z,8.61
2017-03-04T04:33:30.432Z,8.71
2017-03-04T04:34:39.427Z,8.55
2017-03-04T04:35:48.810Z,8.65
2017-03-04T04:36:57.883Z,8.56
2017-03-04T04:38:07.103Z,8.55
2017-03-04T04:39:16.122Z,8.61
2017-03-04T04:40:25.114Z,8.62
2017-03-04T04:41:34.105Z,8.61
2017-03-04T04:42:43.190Z,8.59
2017-03-04T04:43:52.440Z,8.62
2017-03-04T04:45:01.424Z,8.65
2017-03-04T04:46:10.408Z,8.56
2017-03-04T04:47:19.400Z,8.62
2017-03-04T04:48:28.389Z,8.56
2017-03-04T04:49:37.672Z,8.55
2017-03-04T04:50:46.681Z,8.63
2017-03-04T04:51:55.696Z,8.59
2017-03-04T04:53:04.684Z,8.59
2017-03-04T04:54:13.669Z,8.5
2017-03-04T04:55:22.947Z,8.61
2017-03-04T04:56:31.933Z,8.53
2017-03-04T04:57:40.922Z,8.5
2017-03-04T04:58:49.932Z,8.53
2017-03-04T04:59:59.330Z,8.53
2017-03-04T05:01:08.574Z,8.62
2017-03-04T05:02:17.636Z,8.58
2017-03-04T05:03:26.712Z,8.56
2017-03-04T05:04:36.110Z,8.52
2017-03-04T05:05:45.113Z,8.62
2017-03-04T05:06:54.495Z,8.61
2017-03-04T05:08:03.968Z,8.58
2017-03-04T05:09:12.999Z,8.56
2017-03-04T05:10:21.990Z,8.62
2017-03-04T05:11:31.011Z,8.63
2017-03-04T05:12:40.294Z,8.63
2017-03-04T05:13:49.298Z,8.65
2017-03-04T05:14:58.274Z,8.68
2017-03-04T05:16:07.271Z,8.65
2017-03-04T05:17:16.261Z,8.71
2017-03-04T05:18:25.511Z,8.73
2017-03-04T05:19:34.507Z,8.79
2017-03-04T05:20:43.513Z,8.8
2017-03-04T05:21:52.491Z,8.8
2017-03-04T05:23:01.881Z,8.76
2017-03-04T05:24:11.124Z,8.79
2017-03-04T05:25:20.134Z,8.77
2017-03-04T05:26:29.122Z,8.71
2017-03-04T05:27:38.102Z,8.71
2017-03-04T05:28:47.171Z,8.61
2017-03-04T05:29:56.461Z,8.61
2017-03-04T05:31:05.879Z,8.58
2017-03-04T05:32:14.856Z,8.61
2017-03-04T05:33:23.837Z,8.58
2017-03-04T05:34:32.893Z,8.62
2017-03-04T05:35:42.179Z,8.58
2017-03-04T05:36:51.249Z,8.56
2017-03-04T05:38:00.650Z,8.62
2017-03-04T05:39:09.646Z,8.62
2017-03-04T05:40:18.620Z,8.68
2017-03-04T05:41:28.462Z,8.63
2017-03-04T05:42:37.436Z,8.61
2017-03-04T05:43:46.429Z,8.68
2017-03-04T05:44:55.434Z,8.66
2017-03-04T05:46:04.416Z,8.58
2017-03-04T05:47:13.715Z,8.62
2017-03-04T05:48:22.723Z,8.56
2017-03-04T05:49:31.751Z,8.65
2017-03-04T05:50:40.755Z,8.66
2017-03-04T05:51:49.742Z,8.65
2017-03-04T05:52:58.986Z,8.65
2017-03-04T05:54:07.978Z,8.56
2017-03-04T05:55:16.963Z,8.61
2017-03-04T05:56:25.962Z,8.61
2017-03-04T05:57:35.352Z,8.55
2017-03-04T05:58:44.734Z,8.61
2017-03-04T05:59:53.711Z,8.68
2017-03-04T06:01:02.712Z,8.73
2017-03-04T06:02:11.687Z,8.65
2017-03-04T06:03:20.684Z,8.7
2017-03-04T06:04:30.379Z,8.7
2017-03-04T06:05:39.364Z,8.74
2017-03-04T06:06:48.356Z,8.77
2017-03-04T06:07:57.419Z,8.8
2017-03-04T06:09:06.398Z,8.81
2017-03-04T06:10:16.417Z,8.84
2017-03-04T06:11:25.406Z,8.71
2017-03-04T06:12:34.398Z,8.71
2017-03-04T06:13:43.396Z,8.76
2017-03-04T06:14:52.378Z,8.74
2017-03-04T06:16:01.616Z,8.81
2017-03-04T06:17:10.598Z,8.79
2017-03-04T06:18:19.584Z,8.79
2017-03-04T06:19:28.566Z,8.77
2017-03-04T06:20:37.590Z,8.77
2017-03-04T06:21:47.227Z,8.8
2017-03-04T06:22:56.216Z,8.79
2017-03-04T06:24:05.205Z,8.91
2017-03-04T06:25:14.189Z,8.81
2017-03-04T06:26:23.190Z,8.86
2017-03-04T06:27:32.465Z,8.81
2017-03-04T06:28:41.576Z,8.83
2017-03-04T06:29:50.649Z,8.83
2017-03-04T06:30:59.649Z,8.84
2017-03-04T06:32:08.621Z,8.86
2017-03-04T06:33:17.866Z,8.91
2017-03-04T06:34:26.841Z,8.86
2017-03-04T06:35:35.925Z,8.92
2017-03-04T06:36:44.910Z,8.95
2017-03-04T06:37:53.890Z,8.89
2017-03-04T06:39:03.182Z,8.89
2017-03-04T06:40:12.579Z,8.91
2017-03-04T06:41:21.569Z,8.91
2017-03-04T06:42:30.737Z,8.89
2017-03-04T06:43:39.725Z,8.89
2017-03-04T06:44:48.963Z,8.91
2017-03-04T06:45:57.933Z,8.81
2017-03-04T06:47:07.337Z,8.91
2017-03-04T06:48:16.503Z,8.89
2017-03-04T06:49:26.313Z,8.89
2017-03-04T06:50:35.538Z,8.98
2017-03-04T06:51:44.613Z,9.01
2017-03-04T06:52:53.680Z,8.99
2017-03-04T06:54:02.658Z,9.04
2017-03-04T06:55:11.737Z,9.04
2017-03-04T06:56:21.016Z,9.08
2017-03-04T06:57:30.007Z,9.11
2017-03-04T06:58:39.406Z,9.1
2017-03-04T06:59:48.803Z,9.15
2017-03-04T07:00:58.211Z,9.15
2017-03-04T07:02:07.499Z,9.17
2017-03-04T07:03:16.474Z,9.32
2017-03-04T07:04:25.555Z,9.28
2017-03-04T07:05:35.075Z,9.29
2017-03-04T07:06:44.068Z,9.36
2017-03-04T07:07:53.351Z,9.31
2017-03-04T07:09:02.338Z,9.4
2017-03-04T07:10:11.341Z,9.4
2017-03-04T07:11:20.727Z,9.39
2017-03-04T07:12:29.719Z,9.4
2017-03-04T07:13:38.950Z,9.48
2017-03-04T07:14:47.928Z,9.51
2017-03-04T07:15:57.013Z,9.43
2017-03-04T07:17:06.003Z,9.48
2017-03-04T07:18:14.983Z,9.48
2017-03-04T07:19:24.280Z,9.51
2017-03-04T07:20:33.309Z,9.48
2017-03-04T07:21:42.302Z,9.58
2017-03-04T07:22:51.284Z,9.61
2017-03-04T07:24:00.259Z,9.69
2017-03-04T07:25:09.594Z,9.61
2017-03-04T07:26:18.602Z,9.74
2017-03-04T07:27:27.627Z,9.74
2017-03-04T07:28:36.645Z,9.72
2017-03-04T07:29:45.640Z,9.81
2017-03-04T07:30:54.890Z,9.84
2017-03-04T07:32:03.894Z,9.79
2017-03-04T07:33:13.279Z,9.83
2017-03-04T07:34:22.511Z,9.87
2017-03-04T07:35:31.513Z,9.89
2017-03-04T07:36:41.000Z,9.91
2017-03-04T07:37:49.985Z,9.87
2017-03-04T07:38:59.144Z,9.96
2017-03-04T07:40:08.139Z,9.94
2017-03-04T07:41:17.129Z,10.01
2017-03-04T07:42:27.046Z,10.01
2017-03-04T07:43:36.030Z,10.07
2017-03-04T07:44:45.017Z,10.08
2017-03-04T07:45:54.006Z,10.08
2017-03-04T07:47:03.002Z,10.12
2017-03-04T07:48:12.386Z,10.14
2017-03-04T07:49:21.371Z,10.15
2017-03-04T07:50:30.375Z,10.22
2017-03-04T07:51:39.366Z,10.15
2017-03-04T07:52:48.355Z,10.2
2017-03-04T07:53:57.649Z,10.22
2017-03-04T07:55:06.624Z,10.22
2017-03-04T07:56:15.604Z,10.18
2017-03-04T07:57:24.634Z,10.25
2017-03-04T07:58:33.660Z,10.29
2017-03-04T07:59:43.078Z,10.32
2017-03-04T08:00:52.073Z,10.34
2017-03-04T08:02:01.138Z,10.3
2017-03-04T08:03:10.615Z,10.36
2017-03-04T08:04:19.668Z,10.36
2017-03-04T08:05:28.916Z,10.41
2017-03-04T08:06:37.924Z,10.32
2017-03-04T08:07:47.341Z,10.51
2017-03-04T08:08:56.408Z,10.45
2017-03-04T08:10:05.514Z,10.47
2017-03-04T08:11:14.993Z,10.53
2017-03-04T08:12:24.116Z,10.42
2017-03-04T08:13:33.128Z,10.64
2017-03-04T08:14:42.376Z,10.6
2017-03-04T08:15:51.457Z,10.47
2017-03-04T08:17:00.894Z,10.6
2017-03-04T08:18:09.973Z,10.53
2017-03-04T08:19:19.283Z,10.6
2017-03-04T08:20:28.283Z,10.63
2017-03-04T08:21:37.461Z,10.68
2017-03-04T08:22:46.764Z,10.74
2017-03-04T08:23:55.762Z,10.79
2017-03-04T08:25:04.813Z,10.94
2017-03-04T08:26:13.825Z,10.88
2017-03-04T08:27:22.828Z,10.94
2017-03-04T08:28:32.236Z,10.97
2017-03-04T08:29:41.665Z,11.14
2017-03-04T08:30:50.885Z,11.06
2017-03-04T08:32:00.421Z,11.07
2017-03-04T08:33:09.756Z,11.19
2017-03-04T08:34:19.145Z,11.25
2017-03-04T08:35:28.211Z,11.22
2017-03-04T08:36:37.392Z,11.15
2017-03-04T08:37:46.369Z,11.27
2017-03-04T08:38:55.604Z,11.29
2017-03-04T08:40:04.910Z,11.33
2017-03-04T08:41:13.915Z,11.4
2017-03-04T08:42:23.070Z,11.35
2017-03-04T08:43:32.066Z,11.44
2017-03-04T08:44:41.241Z,11.46
2017-03-04T08:45:50.629Z,11.52
2017-03-04T08:46:59.623Z,11.6
2017-03-04T08:48:08.745Z,11.57
2017-03-04T08:49:17.818Z,11.61
2017-03-04T08:50:26.815Z,11.61
2017-03-04T08:51:36.095Z,11.75
2017-03-04T08:52:45.084Z,11.79
2017-03-04T08:53:54.141Z,11.9
2017-03-04T08:55:03.200Z,11.82
2017-03-04T08:56:12.264Z,11.96
2017-03-04T08:57:21.558Z,11.98
2017-03-04T08:58:30.535Z,12.1
2017-03-04T08:59:39.523Z,12.1
2017-03-04T09:00:48.660Z,12.1
2017-03-04T09:01:57.649Z,12.28
2017-03-04T09:03:06.900Z,12.31
2017-03-04T09:04:15.910Z,12.34
2017-03-04T09:05:25.046Z,12.32
2017-03-04T09:06:34.115Z,12.41
2017-03-04T09:07:43.492Z,12.38
2017-03-04T09:08:52.855Z,12.46
2017-03-04T09:10:01.901Z,12.52
2017-03-04T09:11:11.693Z,12.57
2017-03-04T09:12:20.678Z,12.54
2017-03-04T09:13:29.789Z,12.59
2017-03-04T09:14:39.247Z,12.65
2017-03-04T09:15:48.241Z,12.7
2017-03-04T09:16:57.226Z,12.82
2017-03-04T09:18:06.205Z,12.67
2017-03-04T09:19:15.217Z,12.83
2017-03-04T09:20:24.665Z,12.87
2017-03-04T09:21:33.742Z,12.85
2017-03-04T09:22:43.200Z,12.87
2017-03-04T09:23:52.193Z,13.01
2017-03-04T09:25:01.584Z,12.96
2017-03-04T09:26:11.351Z,13.07
2017-03-04T09:27:20.348Z,13.04
2017-03-04T09:28:29.457Z,13.04
2017-03-04T09:29:38.439Z,13.12
2017-03-04T09:30:47.426Z,13.12
2017-03-04T09:31:57.124Z,13.19
2017-03-04T09:33:06.223Z,13.22
2017-03-04T09:34:15.204Z,13.2
2017-03-04T09:35:24.215Z,13.2
2017-03-04T09:36:33.435Z,13.22
2017-03-04T09:37:42.871Z,13.23
2017-03-04T09:38:51.899Z,13.23
2017-03-04T09:40:01.031Z,13.22
2017-03-04T09:41:10.127Z,13.25
2017-03-04T09:42:19.138Z,13.29
2017-03-04T09:43:28.886Z,13.39
2017-03-04T09:44:37.890Z,13.45
2017-03-04T09:45:47.149Z,13.38
2017-03-04T09:46:56.190Z,13.41
2017-03-04T09:48:05.208Z,13.49
2017-03-04T09:49:14.556Z,13.39
2017-03-04T09:50:23.544Z,13.54
2017-03-04T09:51:33.077Z,13.59
2017-03-04T09:52:42.219Z,13.6
2017-03-04T09:53:51.202Z,13.64
2017-03-04T09:55:00.436Z,13.52
2017-03-04T09:56:09.521Z,13.57
2017-03-04T09:57:18.533Z,13.62
2017-03-04T09:58:27.923Z,13.64
2017-03-04T09:59:36.922Z,13.59
2017-03-04T10:00:46.236Z,13.55
2017-03-04T10:01:55.214Z,13.6
2017-03-04T10:03:04.299Z,13.67
2017-03-04T10:04:13.319Z,13.63
2017-03-04T10:05:22.303Z,13.59
2017-03-04T10:06:31.619Z,13.64
2017-03-04T10:07:40.627Z,13.64
2017-03-04T10:08:50.022Z,13.6
2017-03-04T10:09:59.008Z,13.59
2017-03-04T10:11:08.012Z,13.59
2017-03-04T10:12:17.300Z,13.69
2017-03-04T10:13:26.706Z,13.69
2017-03-04T10:14:35.700Z,13.73
2017-03-04T10:15:45.099Z,13.67
2017-03-04T10:16:54.320Z,13.75
2017-03-04T10:18:03.601Z,13.81
2017-03-04T10:19:12.591Z,13.79
2017-03-04T10:20:21.596Z,13.84
2017-03-04T10:21:30.588Z,13.81
2017-03-04T10:22:39.664Z,13.81
2017-03-04T10:23:49.051Z,13.87
2017-03-04T10:24:58.037Z,13.85
2017-03-04T10:26:07.435Z,13.96
2017-03-04T10:27:16.430Z,13.96
2017-03-04T10:28:25.424Z,13.95
2017-03-04T10:29:34.664Z,13.96
2017-03-04T10:30:43.689Z,14.03
2017-03-04T10:31:52.683Z,14.03
2017-03-04T10:33:01.675Z,14.12
2017-03-04T10:34:10.671Z,14.09
2017-03-04T10:35:19.968Z,14.21
2017-03-04T10:36:28.971Z,14.22
2017-03-04T10:37:37.969Z,14.2
2017-03-04T10:38:46.947Z,14.32
2017-03-04T10:39:55.927Z,14.33
2017-03-04T10:41:05.576Z,14.35
2017-03-04T10:42:14.571Z,14.36
2017-03-04T10:43:23.561Z,14.5
2017-03-04T10:44:32.549Z,14.36
2017-03-04T10:45:41.637Z,14.46
2017-03-04T10:46:50.931Z,14.42
2017-03-04T10:47:59.919Z,14.47
2017-03-04T10:49:08.900Z,14.47
2017-03-04T10:50:17.889Z,14.54
2017-03-04T10:51:26.870Z,14.6
2017-03-04T10:52:36.163Z,14.6
2017-03-04T10:53:45.175Z,14.61
2017-03-04T10:54:54.157Z,14.65
2017-03-04T10:56:03.153Z,14.62
2017-03-04T10:57:12.133Z,14.64
2017-03-04T10:58:21.467Z,14.73
2017-03-04T10:59:30.631Z,14.73
2017-03-04T11:00:39.627Z,14.7
2017-03-04T11:01:48.621Z,14.84
2017-03-04T11:02:57.637Z,14.83
2017-03-04T11:04:07.325Z,14.84
2017-03-04T11:05:16.310Z,14.94
2017-03-04T11:06:25.320Z,14.95
2017-03-04T11:07:34.310Z,14.98
2017-03-04T11:08:43.395Z,15.07
2017-03-04T11:09:52.785Z,15.03
2017-03-04T11:11:01.789Z,14.92
2017-03-04T11:12:11.199Z,14.92
2017-03-04T11:13:20.211Z,14.96
2017-03-04T11:14:29.209Z,15.01
2017-03-04T11:15:38.497Z,15.03
2017-03-04T11:16:47.577Z,15.03
2017-03-04T11:17:57.066Z,15.11
2017-03-04T11:19:06.054Z,15.07
2017-03-04T11:20:15.038Z,15.17
2017-03-04T11:21:24.338Z,15.1
2017-03-04T11:22:33.345Z,15.2
2017-03-04T11:23:42.360Z,15.17
2017-03-04T11:24:51.358Z,15.17
2017-03-04T11:26:00.352Z,15.27
2017-03-04T11:27:09.642Z,15.28
2017-03-04T11:28:18.638Z,15.23
2017-03-04T11:29:27.619Z,15.23
2017-03-04T11:30:36.609Z,15.29
2017-03-04T11:31:45.692Z,15.29
2017-03-04T11:32:55.003Z,15.36
2017-03-04T11:34:04.404Z,15.39
2017-03-04T11:35:13.384Z,15.43
2017-03-04T11:36:22.369Z,15.36
2017-03-04T11:37:31.456Z,15.44
2017-03-04T11:38:40.703Z,15.49
2017-03-04T11:39:49.700Z,15.49
2017-03-04T11:40:58.731Z,15.5
2017-03-04T11:42:07.723Z,15.44
2017-03-04T11:43:16.735Z,15.53
2017-03-04T11:44:26.027Z,15.59
2017-03-04T11:45:35.009Z,15.62
2017-03-04T11:46:43.995Z,15.5
2017-03-04T11:47:53.409Z,15.59
2017-03-04T11:49:02.414Z,15.49
2017-03-04T11:50:11.744Z,15.56
2017-03-04T11:51:20.757Z,15.56
2017-03-04T11:52:29.760Z,15.56
2017-03-04T11:53:39.154Z,15.56
2017-03-04T11:54:48.162Z,15.51
2017-03-04T11:55:57.452Z,15.59
2017-03-04T11:57:06.468Z,15.54
2017-03-04T11:58:15.455Z,15.56
2017-03-04T11:59:24.583Z,15.56
2017-03-04T12:00:33.592Z,15.67
2017-03-04T12:01:42.935Z,15.62
2017-03-04T12:02:52.326Z,15.68
2017-03-04T12:04:01.313Z,15.74
2017-03-04T12:05:10.400Z,15.69
2017-03-04T12:06:19.812Z,15.69
2017-03-04T12:07:29.046Z,15.69
2017-03-04T12:08:38.134Z,15.86
2017-03-04T12:09:47.133Z,15.89
2017-03-04T12:10:56.128Z,15.86
2017-03-04T12:12:05.105Z,16
2017-03-04T12:13:14.387Z,16.05
2017-03-04T12:14:23.821Z,16.07
2017-03-04T12:15:32.815Z,16.15
2017-03-04T12:16:41.825Z,16.17
2017-03-04T12:17:50.808Z,16.11
2017-03-04T12:19:00.117Z,16.12
2017-03-04T12:20:09.202Z,16.23
2017-03-04T12:21:18.201Z,16.21
2017-03-04T12:22:27.205Z,16.3
2017-03-04T12:23:36.209Z,16.41
2017-03-04T12:24:45.929Z,16.39
2017-03-04T12:25:54.912Z,16.45
2017-03-04T12:27:03.893Z,16.45
2017-03-04T12:28:12.883Z,16.56
2017-03-04T12:29:21.867Z,16.58
2017-03-04T12:30:31.152Z,16.58
2017-03-04T12:31:40.161Z,16.52
2017-03-04T12:32:49.258Z,16.52
2017-03-04T12:33:58.671Z,16.71
2017-03-04T12:35:07.651Z,16.68
2017-03-04T12:36:17.033Z,16.7
2017-03-04T12:37:26.103Z,16.7
2017-03-04T12:38:35.105Z,16.67
2017-03-04T12:39:44.509Z,16.78
2017-03-04T12:40:53.513Z,16.71
2017-03-04T12:42:03.237Z,16.67
2017-03-04T12:43:12.221Z,16.68
2017-03-04T12:44:21.636Z,16.78
2017-03-04T12:45:30.725Z,16.83
2017-03-04T12:46:39.714Z,16.82
2017-03-04T12:47:49.008Z,16.85
2017-03-04T12:48:58.091Z,16.86
2017-03-04T12:50:07.087Z,16.82
2017-03-04T12:51:16.128Z,16.89
2017-03-04T12:52:25.111Z,16.85
2017-03-04T12:53:34.398Z,16.93
2017-03-04T12:54:43.421Z,16.93
2017-03-04T12:55:52.420Z,16.97
2017-03-04T12:57:01.505Z,16.85
2017-03-04T12:58:10.484Z,16.89
2017-03-04T12:59:19.779Z,16.94
2017-03-04T13:00:28.879Z,16.94
2017-03-04T13:01:37.887Z,16.89
2017-03-04T13:02:46.885Z,16.94
2017-03-04T13:03:55.893Z,17
2017-03-04T13:05:05.156Z,16.94
2017-03-04T13:06:14.179Z,16.94
2017-03-04T13:07:23.180Z,17
2017-03-04T13:08:32.257Z,17.04
2017-03-04T13:09:41.240Z,17.04
2017-03-04T13:10:50.543Z,17.06
2017-03-04T13:11:59.524Z,17.04
2017-03-04T13:13:08.533Z,16.93
2017-03-04T13:14:17.935Z,16.94
2017-03-04T13:15:26.912Z,16.91
2017-03-04T13:16:36.210Z,16.96
2017-03-04T13:17:45.208Z,17.07
2017-03-04T13:18:54.620Z,17.08
2017-03-04T13:20:03.715Z,17.12
2017-03-04T13:21:12.694Z,17.11
2017-03-04T13:22:22.065Z,17.12
2017-03-04T13:23:31.064Z,17.18
2017-03-04T13:24:40.049Z,17.14
2017-03-04T13:25:49.140Z,17.19
2017-03-04T13:26:58.311Z,17.12
2017-03-04T13:28:07.631Z,17.22
2017-03-04T13:29:16.701Z,17.21
2017-03-04T13:30:25.699Z,17.22
2017-03-04T13:31:34.696Z,17.22
2017-03-04T13:32:43.689Z,17.25
2017-03-04T13:33:53.078Z,17.18
2017-03-04T13:35:02.061Z,17.25
2017-03-04T13:36:11.053Z,17.25
2017-03-04T13:37:20.045Z,17.19
2017-03-04T13:38:29.031Z,17.28
2017-03-04T13:39:38.416Z,17.19
2017-03-04T13:40:47.500Z,17.16
2017-03-04T13:41:56.494Z,17.22
2017-03-04T13:43:05.931Z,17.26
2017-03-04T13:44:14.931Z,17.33
2017-03-04T13:45:24.225Z,17.33
2017-03-04T13:46:33.227Z,17.28
2017-03-04T13:47:42.245Z,17.23
2017-03-04T13:48:51.247Z,17.26
2017-03-04T13:50:00.232Z,17.34
2017-03-04T13:51:09.524Z,17.31
2017-03-04T13:52:18.517Z,17.26
2017-03-04T13:53:27.531Z,17.18
2017-03-04T13:54:36.517Z,17.31
2017-03-04T13:55:45.595Z,17.21
2017-03-04T13:56:54.881Z,17.23
2017-03-04T13:58:03.890Z,17.19
2017-03-04T13:59:12.875Z,17.25
2017-03-04T14:00:21.875Z,17.23
2017-03-04T14:01:30.889Z,17.14
2017-03-04T14:02:40.219Z,17.19
2017-03-04T14:03:49.298Z,17.12
2017-03-04T14:04:58.311Z,17.15
2017-03-04T14:06:07.305Z,17.19
2017-03-04T14:07:16.404Z,17.16
2017-03-04T14:08:25.696Z,17.15
2017-03-04T14:09:34.681Z,17.16
2017-03-04T14:10:43.760Z,17.15
2017-03-04T14:11:52.766Z,17.15
2017-03-04T14:13:01.751Z,17.21
2017-03-04T14:14:11.043Z,17.15
2017-03-04T14:15:20.044Z,17.15
2017-03-04T14:16:29.031Z,17.16
2017-03-04T14:17:38.042Z,17.14
2017-03-04T14:18:47.049Z,17.16
2017-03-04T14:19:56.344Z,17.12
2017-03-04T14:21:05.333Z,17.14
2017-03-04T14:22:14.411Z,17.23
2017-03-04T14:23:23.818Z,17.12
2017-03-04T14:24:32.826Z,17.16
2017-03-04T14:25:42.160Z,17.08
2017-03-04T14:26:51.166Z,17.12
2017-03-04T14:28:00.159Z,17.14
2017-03-04T14:29:09.162Z,17.15
2017-03-04T14:30:18.149Z,17.16
2017-03-04T14:31:27.433Z,17.15
2017-03-04T14:32:36.434Z,17.12
2017-03-04T14:33:45.415Z,17.12
2017-03-04T14:34:54.424Z,17.18
2017-03-04T14:36:03.415Z,17.11
2017-03-04T14:37:12.740Z,17.14
2017-03-04T14:38:21.753Z,17.15
2017-03-04T14:39:30.746Z,17.18
2017-03-04T14:40:39.741Z,17.11
2017-03-04T14:41:48.768Z,17.16
2017-03-04T14:42:58.107Z,17.07
2017-03-04T14:44:07.105Z,17.11
2017-03-04T14:45:16.183Z,17.03
2017-03-04T14:46:25.265Z,17.08
2017-03-04T14:47:34.258Z,17.04
2017-03-04T14:48:43.570Z,17.06
2017-03-04T14:49:52.657Z,16.96
2017-03-04T14:51:01.755Z,17.04
2017-03-04T14:52:10.829Z,17.08
2017-03-04T14:53:19.837Z,16.96
2017-03-04T14:54:29.149Z,16.98
2017-03-04T14:55:38.138Z,17
2017-03-04T14:56:47.155Z,16.96
2017-03-04T14:57:57.001Z,16.91
2017-03-04T14:59:06.004Z,16.89
2017-03-04T15:00:15.410Z,16.88
2017-03-04T15:01:24.501Z,16.88
2017-03-04T15:02:33.487Z,16.83
2017-03-04T15:03:42.488Z,16.86
2017-03-04T15:04:51.488Z,16.81
2017-03-04T15:06:00.779Z,16.75
2017-03-04T15:07:09.790Z,16.81
2017-03-04T15:08:18.775Z,16.78
2017-03-04T15:09:27.769Z,16.75